sensor_id;sensor_type;location;lat;lon;timestamp;temperature;humidity
74359;DHT22;62792;46.236;6.040;2023-08-17T00:04:42;26.10;56.50
74359;DHT22;62792;46.236;6.040;2023-08-17T00:09:45;26.00;56.60
74359;DHT22;62792;46.236;6.040;2023-08-17T00:14:49;26.30;56.00
74359;DHT22;62792;46.236;6.040;2023-08-17T00:19:53;26.10;56.00
74359;DHT22;62792;46.236;6.040;2023-08-17T00:24:56;26.10;55.80
74359;DHT22;62792;46.236;6.040;2023-08-17T00:29:59;25.90;56.20
74359;DHT22;62792;46.236;6.040;2023-08-17T00:35:04;25.90;56.30
74359;DHT22;62792;46.236;6.040;2023-08-17T00:40:07;25.80;56.70
74359;DHT22;62792;46.236;6.040;2023-08-17T00:45:11;25.70;56.20
74359;DHT22;62792;46.236;6.040;2023-08-17T00:50:15;25.60;56.30
74359;DHT22;62792;46.236;6.040;2023-08-17T00:55:18;25.50;56.80
74359;DHT22;62792;46.236;6.040;2023-08-17T01:00:21;25.30;56.80
74359;DHT22;62792;46.236;6.040;2023-08-17T01:05:26;25.40;56.10
74359;DHT22;62792;46.236;6.040;2023-08-17T01:10:31;25.50;56.40
74359;DHT22;62792;46.236;6.040;2023-08-17T01:15:43;25.40;56.60
74359;DHT22;62792;46.236;6.040;2023-08-17T01:20:50;25.60;55.80
74359;DHT22;62792;46.236;6.040;2023-08-17T01:25:57;25.20;57.00
74359;DHT22;62792;46.236;6.040;2023-08-17T01:31:00;25.30;56.90
74359;DHT22;62792;46.236;6.040;2023-08-17T01:36:07;25.10;57.10
74359;DHT22;62792;46.236;6.040;2023-08-17T01:41:15;25.00;57.70
74359;DHT22;62792;46.236;6.040;2023-08-17T01:46:19;25.10;57.70
74359;DHT22;62792;46.236;6.040;2023-08-17T01:51:22;25.00;57.90
74359;DHT22;62792;46.236;6.040;2023-08-17T01:56:26;24.90;58.50
74359;DHT22;62792;46.236;6.040;2023-08-17T02:01:29;24.90;58.30
74359;DHT22;62792;46.236;6.040;2023-08-17T02:06:32;24.80;58.10
74359;DHT22;62792;46.236;6.040;2023-08-17T02:11:36;24.90;57.80
74359;DHT22;62792;46.236;6.040;2023-08-17T02:16:39;25.10;57.20
74359;DHT22;62792;46.236;6.040;2023-08-17T02:21:42;25.30;56.60
74359;DHT22;62792;46.236;6.040;2023-08-17T02:26:46;25.50;55.70
74359;DHT22;62792;46.236;6.040;2023-08-17T02:31:49;25.60;55.40
74359;DHT22;62792;46.236;6.040;2023-08-17T02:36:52;24.90;56.20
74359;DHT22;62792;46.236;6.040;2023-08-17T02:41:56;24.60;57.70
74359;DHT22;62792;46.236;6.040;2023-08-17T02:46:59;24.30;58.50
74359;DHT22;62792;46.236;6.040;2023-08-17T02:52:02;24.20;59.30
74359;DHT22;62792;46.236;6.040;2023-08-17T02:57:07;24.10;58.90
74359;DHT22;62792;46.236;6.040;2023-08-17T03:02:10;24.30;58.20
74359;DHT22;62792;46.236;6.040;2023-08-17T03:07:13;24.40;57.80
74359;DHT22;62792;46.236;6.040;2023-08-17T03:12:17;24.40;58.00
74359;DHT22;62792;46.236;6.040;2023-08-17T03:17:20;24.40;58.00
74359;DHT22;62792;46.236;6.040;2023-08-17T03:22:23;24.50;58.00
74359;DHT22;62792;46.236;6.040;2023-08-17T03:27:27;24.40;58.30
74359;DHT22;62792;46.236;6.040;2023-08-17T03:32:31;24.40;58.10
74359;DHT22;62792;46.236;6.040;2023-08-17T03:37:34;24.30;58.10
74359;DHT22;62792;46.236;6.040;2023-08-17T03:42:38;24.20;58.20
74359;DHT22;62792;46.236;6.040;2023-08-17T03:47:41;24.30;58.60
74359;DHT22;62792;46.236;6.040;2023-08-17T03:52:44;24.10;58.90
74359;DHT22;62792;46.236;6.040;2023-08-17T03:57:48;24.00;58.40
74359;DHT22;62792;46.236;6.040;2023-08-17T04:02:51;24.30;58.00
74359;DHT22;62792;46.236;6.040;2023-08-17T04:07:54;24.40;58.10
74359;DHT22;62792;46.236;6.040;2023-08-17T04:13:00;24.40;58.20
74359;DHT22;62792;46.236;6.040;2023-08-17T04:18:03;24.30;58.40
74359;DHT22;62792;46.236;6.040;2023-08-17T04:23:06;23.90;59.80
74359;DHT22;62792;46.236;6.040;2023-08-17T04:28:10;23.90;60.30
74359;DHT22;62792;46.236;6.040;2023-08-17T04:33:17;23.80;61.40
74359;DHT22;62792;46.236;6.040;2023-08-17T04:38:19;24.00;59.30
74359;DHT22;62792;46.236;6.040;2023-08-17T04:43:24;24.20;58.20
74359;DHT22;62792;46.236;6.040;2023-08-17T04:48:27;24.50;57.80
74359;DHT22;62792;46.236;6.040;2023-08-17T04:53:30;24.20;58.30
74359;DHT22;62792;46.236;6.040;2023-08-17T04:58:34;24.00;59.50
74359;DHT22;62792;46.236;6.040;2023-08-17T05:03:37;23.90;60.30
74359;DHT22;62792;46.236;6.040;2023-08-17T05:08:40;23.90;60.40
74359;DHT22;62792;46.236;6.040;2023-08-17T05:13:44;24.20;60.70
74359;DHT22;62792;46.236;6.040;2023-08-17T05:18:47;24.10;63.40
74359;DHT22;62792;46.236;6.040;2023-08-17T05:23:50;23.90;63.70
74359;DHT22;62792;46.236;6.040;2023-08-17T05:28:54;23.90;62.60
74359;DHT22;62792;46.236;6.040;2023-08-17T05:33:57;24.00;62.60
74359;DHT22;62792;46.236;6.040;2023-08-17T05:39:00;24.00;62.50
74359;DHT22;62792;46.236;6.040;2023-08-17T05:44:04;24.20;61.90
74359;DHT22;62792;46.236;6.040;2023-08-17T05:49:08;24.50;61.10
74359;DHT22;62792;46.236;6.040;2023-08-17T05:54:11;24.60;60.50
74359;DHT22;62792;46.236;6.040;2023-08-17T05:59:15;24.50;62.20
74359;DHT22;62792;46.236;6.040;2023-08-17T06:04:18;24.60;62.30
74359;DHT22;62792;46.236;6.040;2023-08-17T06:09:22;24.50;64.30
74359;DHT22;62792;46.236;6.040;2023-08-17T06:14:26;24.60;63.50
74359;DHT22;62792;46.236;6.040;2023-08-17T06:19:29;24.70;64.00
74359;DHT22;62792;46.236;6.040;2023-08-17T06:24:32;24.70;64.20
74359;DHT22;62792;46.236;6.040;2023-08-17T06:29:36;24.70;64.20
74359;DHT22;62792;46.236;6.040;2023-08-17T06:34:39;24.90;64.50
74359;DHT22;62792;46.236;6.040;2023-08-17T06:39:42;24.90;64.50
74359;DHT22;62792;46.236;6.040;2023-08-17T06:44:46;24.80;64.90
74359;DHT22;62792;46.236;6.040;2023-08-17T06:49:49;24.90;65.10
74359;DHT22;62792;46.236;6.040;2023-08-17T06:54:52;24.90;66.30
74359;DHT22;62792;46.236;6.040;2023-08-17T06:59:56;24.80;68.40
74359;DHT22;62792;46.236;6.040;2023-08-17T07:05:00;24.60;68.80
74359;DHT22;62792;46.236;6.040;2023-08-17T07:10:03;24.50;68.60
74359;DHT22;62792;46.236;6.040;2023-08-17T07:15:10;24.80;67.60
74359;DHT22;62792;46.236;6.040;2023-08-17T07:20:13;24.90;66.20
74359;DHT22;62792;46.236;6.040;2023-08-17T07:25:22;25.20;65.20
74359;DHT22;62792;46.236;6.040;2023-08-17T07:30:27;25.70;63.70
74359;DHT22;62792;46.236;6.040;2023-08-17T07:35:30;25.70;62.00
74359;DHT22;62792;46.236;6.040;2023-08-17T07:40:32;25.80;60.20
74359;DHT22;62792;46.236;6.040;2023-08-17T07:45:37;25.90;59.10
74359;DHT22;62792;46.236;6.040;2023-08-17T07:50:40;26.00;59.20
74359;DHT22;62792;46.236;6.040;2023-08-17T07:55:43;26.20;59.20
74359;DHT22;62792;46.236;6.040;2023-08-17T08:00:47;26.30;58.50
74359;DHT22;62792;46.236;6.040;2023-08-17T08:05:50;26.30;57.90
74359;DHT22;62792;46.236;6.040;2023-08-17T08:10:53;26.50;56.20
74359;DHT22;62792;46.236;6.040;2023-08-17T08:15:57;26.60;56.10
74359;DHT22;62792;46.236;6.040;2023-08-17T08:21:00;26.80;56.10
74359;DHT22;62792;46.236;6.040;2023-08-17T08:26:03;26.70;56.90
74359;DHT22;62792;46.236;6.040;2023-08-17T08:31:08;26.70;56.50
74359;DHT22;62792;46.236;6.040;2023-08-17T08:36:10;26.90;56.00
74359;DHT22;62792;46.236;6.040;2023-08-17T08:41:13;27.10;55.80
74359;DHT22;62792;46.236;6.040;2023-08-17T08:46:18;27.10;55.60
74359;DHT22;62792;46.236;6.040;2023-08-17T08:51:23;27.20;55.70
74359;DHT22;62792;46.236;6.040;2023-08-17T08:56:30;27.30;55.20
74359;DHT22;62792;46.236;6.040;2023-08-17T09:01:36;27.40;55.50
74359;DHT22;62792;46.236;6.040;2023-08-17T09:06:40;27.40;55.50
74359;DHT22;62792;46.236;6.040;2023-08-17T09:11:46;27.40;55.20
74359;DHT22;62792;46.236;6.040;2023-08-17T09:16:51;27.50;55.00
74359;DHT22;62792;46.236;6.040;2023-08-17T09:21:54;27.60;54.30
74359;DHT22;62792;46.236;6.040;2023-08-17T09:26:56;27.60;53.80
74359;DHT22;62792;46.236;6.040;2023-08-17T09:32:05;27.70;53.40
74359;DHT22;62792;46.236;6.040;2023-08-17T09:37:08;27.60;53.60
74359;DHT22;62792;46.236;6.040;2023-08-17T09:42:11;27.60;53.30
74359;DHT22;62792;46.236;6.040;2023-08-17T09:47:15;27.60;51.60
74359;DHT22;62792;46.236;6.040;2023-08-17T09:52:19;27.60;50.80
74359;DHT22;62792;46.236;6.040;2023-08-17T09:57:22;27.90;50.30
74359;DHT22;62792;46.236;6.040;2023-08-17T10:02:27;27.90;49.80
74359;DHT22;62792;46.236;6.040;2023-08-17T10:07:31;28.00;49.80
74359;DHT22;62792;46.236;6.040;2023-08-17T10:12:36;27.90;50.50
74359;DHT22;62792;46.236;6.040;2023-08-17T10:17:43;28.00;50.10
74359;DHT22;62792;46.236;6.040;2023-08-17T10:22:48;28.10;50.50
74359;DHT22;62792;46.236;6.040;2023-08-17T10:27:54;28.10;49.60
74359;DHT22;62792;46.236;6.040;2023-08-17T10:33:03;28.10;49.40
74359;DHT22;62792;46.236;6.040;2023-08-17T10:38:08;28.20;50.30
74359;DHT22;62792;46.236;6.040;2023-08-17T10:43:12;28.20;50.90
74359;DHT22;62792;46.236;6.040;2023-08-17T10:48:26;28.20;51.60
74359;DHT22;62792;46.236;6.040;2023-08-17T10:53:34;28.30;51.30
74359;DHT22;62792;46.236;6.040;2023-08-17T10:58:42;28.30;52.00
74359;DHT22;62792;46.236;6.040;2023-08-17T11:03:47;28.40;52.80
74359;DHT22;62792;46.236;6.040;2023-08-17T11:08:53;28.30;52.50
74359;DHT22;62792;46.236;6.040;2023-08-17T11:13:57;28.20;52.60
74359;DHT22;62792;46.236;6.040;2023-08-17T11:19:02;28.20;52.50
74359;DHT22;62792;46.236;6.040;2023-08-17T11:24:05;28.30;52.60
74359;DHT22;62792;46.236;6.040;2023-08-17T11:29:10;28.40;52.60
74359;DHT22;62792;46.236;6.040;2023-08-17T11:34:15;28.50;52.10
74359;DHT22;62792;46.236;6.040;2023-08-17T11:39:18;28.60;51.40
74359;DHT22;62792;46.236;6.040;2023-08-17T11:44:22;28.50;51.80
74359;DHT22;62792;46.236;6.040;2023-08-17T11:49:27;28.70;51.70
74359;DHT22;62792;46.236;6.040;2023-08-17T11:54:39;28.60;51.90
74359;DHT22;62792;46.236;6.040;2023-08-17T11:59:43;28.70;51.40
74359;DHT22;62792;46.236;6.040;2023-08-17T12:04:47;28.70;50.90
74359;DHT22;62792;46.236;6.040;2023-08-17T12:09:51;28.80;50.80
74359;DHT22;62792;46.236;6.040;2023-08-17T12:14:54;28.80;50.80
74359;DHT22;62792;46.236;6.040;2023-08-17T12:19:58;28.70;50.60
74359;DHT22;62792;46.236;6.040;2023-08-17T12:25:02;28.80;50.40
74359;DHT22;62792;46.236;6.040;2023-08-17T12:30:06;28.80;50.40
74359;DHT22;62792;46.236;6.040;2023-08-17T12:35:15;28.80;50.20
74359;DHT22;62792;46.236;6.040;2023-08-17T12:40:18;28.70;50.00
74359;DHT22;62792;46.236;6.040;2023-08-17T12:45:22;28.70;50.00
74359;DHT22;62792;46.236;6.040;2023-08-17T12:50:30;28.60;49.80
74359;DHT22;62792;46.236;6.040;2023-08-17T12:55:33;28.70;49.50
74359;DHT22;62792;46.236;6.040;2023-08-17T13:00:36;28.70;49.40
74359;DHT22;62792;46.236;6.040;2023-08-17T13:05:40;28.60;49.60
74359;DHT22;62792;46.236;6.040;2023-08-17T13:10:43;28.60;49.40
74359;DHT22;62792;46.236;6.040;2023-08-17T13:15:46;28.50;49.30
74359;DHT22;62792;46.236;6.040;2023-08-17T13:20:50;28.60;48.80
74359;DHT22;62792;46.236;6.040;2023-08-17T13:25:53;28.80;49.50
74359;DHT22;62792;46.236;6.040;2023-08-17T13:30:57;28.60;49.80
74359;DHT22;62792;46.236;6.040;2023-08-17T13:36:20;28.50;49.50
74359;DHT22;62792;46.236;6.040;2023-08-17T13:41:23;28.30;50.20
74359;DHT22;62792;46.236;6.040;2023-08-17T13:46:26;28.40;50.40
74359;DHT22;62792;46.236;6.040;2023-08-17T13:51:30;28.20;50.30
74359;DHT22;62792;46.236;6.040;2023-08-17T13:56:33;28.40;50.20
74359;DHT22;62792;46.236;6.040;2023-08-17T14:01:36;28.40;49.60
74359;DHT22;62792;46.236;6.040;2023-08-17T14:06:40;28.50;49.40
74359;DHT22;62792;46.236;6.040;2023-08-17T14:11:44;28.60;48.90
74359;DHT22;62792;46.236;6.040;2023-08-17T14:16:46;28.80;48.90
74359;DHT22;62792;46.236;6.040;2023-08-17T14:21:51;28.90;48.80
74359;DHT22;62792;46.236;6.040;2023-08-17T14:26:54;28.70;48.80
74359;DHT22;62792;46.236;6.040;2023-08-17T14:31:58;28.70;48.60
74359;DHT22;62792;46.236;6.040;2023-08-17T14:37:02;28.50;49.00
74359;DHT22;62792;46.236;6.040;2023-08-17T14:42:05;28.50;48.90
74359;DHT22;62792;46.236;6.040;2023-08-17T14:47:08;28.60;48.80
74359;DHT22;62792;46.236;6.040;2023-08-17T14:52:14;28.50;48.00
74359;DHT22;62792;46.236;6.040;2023-08-17T14:57:17;28.60;47.90
74359;DHT22;62792;46.236;6.040;2023-08-17T15:02:20;28.70;48.10
74359;DHT22;62792;46.236;6.040;2023-08-17T15:07:24;28.80;47.70
74359;DHT22;62792;46.236;6.040;2023-08-17T15:12:28;28.80;47.70
74359;DHT22;62792;46.236;6.040;2023-08-17T15:17:30;29.00;48.00
74359;DHT22;62792;46.236;6.040;2023-08-17T15:22:35;28.90;47.60
74359;DHT22;62792;46.236;6.040;2023-08-17T15:27:38;29.10;46.80
74359;DHT22;62792;46.236;6.040;2023-08-17T15:32:41;29.00;47.20
74359;DHT22;62792;46.236;6.040;2023-08-17T15:37:46;28.90;47.40
74359;DHT22;62792;46.236;6.040;2023-08-17T15:42:49;29.20;46.70
74359;DHT22;62792;46.236;6.040;2023-08-17T15:47:52;29.80;44.50
74359;DHT22;62792;46.236;6.040;2023-08-17T15:52:56;29.60;44.40
74359;DHT22;62792;46.236;6.040;2023-08-17T15:57:59;30.00;44.10
74359;DHT22;62792;46.236;6.040;2023-08-17T16:03:02;30.20;43.50
74359;DHT22;62792;46.236;6.040;2023-08-17T16:08:07;30.30;42.80
74359;DHT22;62792;46.236;6.040;2023-08-17T16:13:10;30.20;43.60
74359;DHT22;62792;46.236;6.040;2023-08-17T16:18:13;29.70;44.00
74359;DHT22;62792;46.236;6.040;2023-08-17T16:23:17;29.60;43.10
74359;DHT22;62792;46.236;6.040;2023-08-17T16:28:23;29.70;43.70
74359;DHT22;62792;46.236;6.040;2023-08-17T16:33:26;30.00;43.50
74359;DHT22;62792;46.236;6.040;2023-08-17T16:38:31;30.10;44.10
74359;DHT22;62792;46.236;6.040;2023-08-17T16:43:34;30.10;44.20
74359;DHT22;62792;46.236;6.040;2023-08-17T16:48:37;30.20;44.60
74359;DHT22;62792;46.236;6.040;2023-08-17T16:53:43;30.20;44.70
74359;DHT22;62792;46.236;6.040;2023-08-17T16:58:51;30.20;44.90
74359;DHT22;62792;46.236;6.040;2023-08-17T17:03:54;30.20;45.50
74359;DHT22;62792;46.236;6.040;2023-08-17T17:08:58;30.20;45.70
74359;DHT22;62792;46.236;6.040;2023-08-17T17:14:01;30.20;45.40
74359;DHT22;62792;46.236;6.040;2023-08-17T17:19:04;30.40;45.30
74359;DHT22;62792;46.236;6.040;2023-08-17T17:24:11;30.30;45.20
74359;DHT22;62792;46.236;6.040;2023-08-17T17:29:14;30.40;45.20
74359;DHT22;62792;46.236;6.040;2023-08-17T17:34:17;30.30;45.20
74359;DHT22;62792;46.236;6.040;2023-08-17T17:39:22;30.70;45.10
74359;DHT22;62792;46.236;6.040;2023-08-17T17:44:25;31.10;44.50
74359;DHT22;62792;46.236;6.040;2023-08-17T17:49:28;30.90;44.60
74359;DHT22;62792;46.236;6.040;2023-08-17T17:54:33;30.60;45.20
74359;DHT22;62792;46.236;6.040;2023-08-17T17:59:38;30.40;45.80
74359;DHT22;62792;46.236;6.040;2023-08-17T18:04:41;30.40;45.90
74359;DHT22;62792;46.236;6.040;2023-08-17T18:09:46;30.20;45.60
74359;DHT22;62792;46.236;6.040;2023-08-17T18:14:48;30.30;46.00
74359;DHT22;62792;46.236;6.040;2023-08-17T18:19:51;30.20;46.00
74359;DHT22;62792;46.236;6.040;2023-08-17T18:24:56;30.30;46.20
74359;DHT22;62792;46.236;6.040;2023-08-17T18:29:58;30.20;46.30
74359;DHT22;62792;46.236;6.040;2023-08-17T18:35:03;30.20;46.70
74359;DHT22;62792;46.236;6.040;2023-08-17T18:40:08;30.10;46.60
74359;DHT22;62792;46.236;6.040;2023-08-17T18:45:13;30.10;47.00
74359;DHT22;62792;46.236;6.040;2023-08-17T18:50:19;30.10;47.20
74359;DHT22;62792;46.236;6.040;2023-08-17T18:55:24;30.10;47.10
74359;DHT22;62792;46.236;6.040;2023-08-17T19:00:28;30.10;47.40
74359;DHT22;62792;46.236;6.040;2023-08-17T19:05:31;30.00;47.70
74359;DHT22;62792;46.236;6.040;2023-08-17T19:10:36;29.90;48.00
74359;DHT22;62792;46.236;6.040;2023-08-17T19:15:39;29.90;47.90
74359;DHT22;62792;46.236;6.040;2023-08-17T19:20:42;30.00;48.00
74359;DHT22;62792;46.236;6.040;2023-08-17T19:25:46;29.90;48.20
74359;DHT22;62792;46.236;6.040;2023-08-17T19:30:49;29.80;48.40
74359;DHT22;62792;46.236;6.040;2023-08-17T19:35:52;29.70;48.90
74359;DHT22;62792;46.236;6.040;2023-08-17T19:40:56;29.70;49.60
74359;DHT22;62792;46.236;6.040;2023-08-17T19:45:59;29.70;49.80
74359;DHT22;62792;46.236;6.040;2023-08-17T19:51:02;29.70;50.00
74359;DHT22;62792;46.236;6.040;2023-08-17T19:56:06;29.70;49.70
74359;DHT22;62792;46.236;6.040;2023-08-17T20:01:10;29.60;49.30
74359;DHT22;62792;46.236;6.040;2023-08-17T20:06:14;29.60;49.20
74359;DHT22;62792;46.236;6.040;2023-08-17T20:11:18;29.50;48.90
74359;DHT22;62792;46.236;6.040;2023-08-17T20:16:21;29.50;49.30
74359;DHT22;62792;46.236;6.040;2023-08-17T20:21:24;29.30;49.40
74359;DHT22;62792;46.236;6.040;2023-08-17T20:26:28;29.30;48.80
74359;DHT22;62792;46.236;6.040;2023-08-17T20:31:31;29.20;48.40
74359;DHT22;62792;46.236;6.040;2023-08-17T20:36:35;29.20;48.10
74359;DHT22;62792;46.236;6.040;2023-08-17T20:41:39;29.20;48.10
74359;DHT22;62792;46.236;6.040;2023-08-17T20:46:42;29.20;47.80
74359;DHT22;62792;46.236;6.040;2023-08-17T20:51:45;29.20;47.90
74359;DHT22;62792;46.236;6.040;2023-08-17T20:56:51;29.20;48.20
74359;DHT22;62792;46.236;6.040;2023-08-17T21:01:56;29.30;48.80
74359;DHT22;62792;46.236;6.040;2023-08-17T21:06:59;29.20;49.60
74359;DHT22;62792;46.236;6.040;2023-08-17T21:12:03;29.10;49.60
74359;DHT22;62792;46.236;6.040;2023-08-17T21:17:06;29.20;50.20
74359;DHT22;62792;46.236;6.040;2023-08-17T21:22:09;29.00;52.00
74359;DHT22;62792;46.236;6.040;2023-08-17T21:27:13;28.90;52.10
74359;DHT22;62792;46.236;6.040;2023-08-17T21:32:16;28.70;52.30
74359;DHT22;62792;46.236;6.040;2023-08-17T21:37:23;28.60;52.10
74359;DHT22;62792;46.236;6.040;2023-08-17T21:42:29;28.60;52.20
74359;DHT22;62792;46.236;6.040;2023-08-17T21:47:32;28.50;52.20
74359;DHT22;62792;46.236;6.040;2023-08-17T21:52:35;28.00;52.80
74359;DHT22;62792;46.236;6.040;2023-08-17T21:57:40;27.90;53.20
74359;DHT22;62792;46.236;6.040;2023-08-17T22:02:43;27.50;53.70
74359;DHT22;62792;46.236;6.040;2023-08-17T22:07:46;27.60;52.90
74359;DHT22;62792;46.236;6.040;2023-08-17T22:12:50;27.80;52.60
74359;DHT22;62792;46.236;6.040;2023-08-17T22:17:53;27.80;52.40
74359;DHT22;62792;46.236;6.040;2023-08-17T22:22:56;27.70;52.40
74359;DHT22;62792;46.236;6.040;2023-08-17T22:28:00;27.60;52.10
74359;DHT22;62792;46.236;6.040;2023-08-17T22:33:03;27.50;52.10
74359;DHT22;62792;46.236;6.040;2023-08-17T22:38:07;27.60;52.50
74359;DHT22;62792;46.236;6.040;2023-08-17T22:43:13;27.50;52.50
74359;DHT22;62792;46.236;6.040;2023-08-17T22:48:15;27.50;52.60
74359;DHT22;62792;46.236;6.040;2023-08-17T22:53:19;27.50;52.90
74359;DHT22;62792;46.236;6.040;2023-08-17T22:58:23;27.50;53.00
74359;DHT22;62792;46.236;6.040;2023-08-17T23:03:26;27.30;53.20
74359;DHT22;62792;46.236;6.040;2023-08-17T23:08:29;27.20;53.50
74359;DHT22;62792;46.236;6.040;2023-08-17T23:13:33;27.00;54.30
74359;DHT22;62792;46.236;6.040;2023-08-17T23:18:36;26.70;54.90
74359;DHT22;62792;46.236;6.040;2023-08-17T23:23:39;26.70;54.30
74359;DHT22;62792;46.236;6.040;2023-08-17T23:28:43;26.60;54.80
74359;DHT22;62792;46.236;6.040;2023-08-17T23:33:46;26.40;56.80
74359;DHT22;62792;46.236;6.040;2023-08-17T23:38:49;26.40;56.20
74359;DHT22;62792;46.236;6.040;2023-08-17T23:43:53;26.40;56.40
74359;DHT22;62792;46.236;6.040;2023-08-17T23:48:56;26.50;56.50
74359;DHT22;62792;46.236;6.040;2023-08-17T23:53:59;26.40;56.30
74359;DHT22;62792;46.236;6.040;2023-08-17T23:59:04;26.10;57.70
